createdAt,value
2023-02-24T00:00:53.383Z,101641.13
2023-02-24T00:03:24.591Z,101643.88
2023-02-24T00:05:52.718Z,101643.69
2023-02-24T00:08:22.652Z,101641.78
2023-02-24T00:10:53.324Z,101634.53
2023-02-24T00:13:22.436Z,101630.81
2023-02-24T00:16:03.613Z,101641.53
2023-02-24T00:18:32.316Z,101635.44
2023-02-24T00:21:08.363Z,101634.81
2023-02-24T00:23:40.560Z,101637.66
2023-02-24T00:26:10.105Z,101635.19
2023-02-24T00:28:39.509Z,101634.22
2023-02-24T00:31:10.093Z,101629.59
2023-02-24T00:33:39.806Z,101636.34
2023-02-24T00:36:10.931Z,101623.00
2023-02-24T00:38:45.480Z,101613.03
2023-02-24T00:41:15.577Z,101619.06
2023-02-24T00:43:47.019Z,101612.09
2023-02-24T00:46:18.328Z,101610.56
2023-02-24T00:48:47.341Z,101599.38
2023-02-24T00:51:18.133Z,101599.44
2023-02-24T00:53:48.147Z,101595.91
2023-02-24T00:56:16.360Z,101598.53
2023-02-24T00:58:46.083Z,101589.66
2023-02-24T01:01:15.951Z,101587.78
2023-02-24T01:03:44.530Z,101582.38
2023-02-24T01:06:13.969Z,101575.03
2023-02-24T01:08:47.731Z,101587.38
2023-02-24T01:11:35.746Z,101569.69
2023-02-24T01:14:06.078Z,101573.13
2023-02-24T01:16:35.323Z,101572.06
2023-02-24T01:19:03.550Z,101568.41
2023-02-24T01:21:32.141Z,101555.13
2023-02-24T01:24:00.461Z,101562.81
2023-02-24T01:26:31.404Z,101559.19
2023-02-24T01:28:59.630Z,101566.13
2023-02-24T01:31:28.986Z,101564.28
2023-02-24T01:33:57.950Z,101558.19
2023-02-24T01:36:32.310Z,101560.63
2023-02-24T01:39:02.914Z,101552.69
2023-02-24T01:41:36.035Z,101547.31
2023-02-24T01:44:10.063Z,101547.19
2023-02-24T01:46:57.633Z,101539.25
2023-02-24T01:49:33.282Z,101531.22
2023-02-24T01:52:05.943Z,101524.00
2023-02-24T01:54:39.509Z,101520.44
2023-02-24T01:57:11.789Z,101517.13
2023-02-24T01:59:40.583Z,101509.25
2023-02-24T02:02:09.890Z,101515.53
2023-02-24T02:04:43.891Z,101508.81
2023-02-24T02:07:14.553Z,101506.28
2023-02-24T02:09:45.271Z,101501.91
2023-02-24T02:12:17.670Z,101496.63
2023-02-24T02:14:52.580Z,101497.56
2023-02-24T02:17:28.263Z,101492.25
2023-02-24T02:20:27.550Z,101496.63
2023-02-24T02:23:41.083Z,101505.34
2023-02-24T02:26:33.001Z,101504.38
2023-02-24T02:29:28.679Z,101502.28
2023-02-24T02:32:25.688Z,101494.09
2023-02-24T02:34:58.568Z,101490.22
2023-02-24T02:37:34.391Z,101485.50
2023-02-24T02:40:15.621Z,101482.59
2023-02-24T02:42:49.730Z,101476.16
2023-02-24T02:45:26.155Z,101472.28
2023-02-24T02:48:00.868Z,101464.97
2023-02-24T02:50:37.086Z,101464.91
2023-02-24T02:53:08.115Z,101461.53
2023-02-24T02:55:43.496Z,101468.84
2023-02-24T02:58:17.992Z,101461.31
2023-02-24T03:01:01.928Z,101459.91
2023-02-24T03:03:34.192Z,101450.28
2023-02-24T03:06:08.282Z,101456.38
2023-02-24T03:08:40.828Z,101454.31
2023-02-24T03:11:14.273Z,101444.44
2023-02-24T03:13:49.751Z,101446.81
2023-02-24T03:16:20.387Z,101449.88
2023-02-24T03:18:59.292Z,101442.47
2023-02-24T03:21:34.721Z,101434.94
2023-02-24T03:24:06.420Z,101438.88
2023-02-24T03:26:42.727Z,101428.75
2023-02-24T03:29:18.818Z,101421.44
2023-02-24T03:31:54.273Z,101420.19
2023-02-24T03:34:27.957Z,101422.47
2023-02-24T03:36:58.184Z,101417.69
2023-02-24T03:39:27.166Z,101413.88
2023-02-24T03:41:59.896Z,101413.59
2023-02-24T03:44:29.057Z,101411.56
2023-02-24T03:46:58.533Z,101405.22
2023-02-24T03:49:27.409Z,101401.63
2023-02-24T03:52:11.082Z,101395.22
2023-02-24T03:55:06.437Z,101397.72
2023-02-24T03:57:56.089Z,101387.88
2023-02-24T04:00:34.689Z,101395.78
2023-02-24T04:03:11.051Z,101386.78
2023-02-24T04:05:47.698Z,101379.63
2023-02-24T04:08:20.608Z,101376.03
2023-02-24T04:10:53.900Z,101365.31
2023-02-24T04:13:35.533Z,101357.13
2023-02-24T04:16:11.881Z,101367.59
2023-02-24T04:18:41.729Z,101368.44
2023-02-24T04:21:10.048Z,101365.69
2023-02-24T04:23:44.058Z,101367.41
2023-02-24T04:26:16.941Z,101362.88
2023-02-24T04:28:48.625Z,101358.44
2023-02-24T04:31:19.377Z,101363.56
2023-02-24T04:33:50.788Z,101358.19
2023-02-24T04:36:19.584Z,101359.03
2023-02-24T04:38:49.592Z,101353.72
2023-02-24T04:41:21.704Z,101358.00
2023-02-24T04:43:52.268Z,101358.00
2023-02-24T04:46:21.172Z,101350.97
2023-02-24T04:48:51.099Z,101350.03
2023-02-24T04:51:21.312Z,101351.06
2023-02-24T04:53:55.582Z,101351.94
2023-02-24T04:56:26.329Z,101347.38
2023-02-24T04:58:54.424Z,101340.38
2023-02-24T05:01:23.073Z,101332.41
2023-02-24T05:03:51.223Z,101338.66
2023-02-24T05:06:19.534Z,101331.53
2023-02-24T05:08:47.691Z,101324.44
2023-02-24T05:11:20.135Z,101324.38
2023-02-24T05:13:48.332Z,101329.50
2023-02-24T05:16:20.475Z,101326.75
2023-02-24T05:18:48.617Z,101318.72
2023-02-24T05:21:35.844Z,101315.91
2023-02-24T05:24:07.067Z,101312.25
2023-02-24T05:26:38.369Z,101312.94
2023-02-24T05:29:07.545Z,101310.03
2023-02-24T05:31:37.020Z,101309.78
2023-02-24T05:34:08.141Z,101307.72
2023-02-24T05:36:40.234Z,101300.41
2023-02-24T05:39:12.863Z,101294.84
2023-02-24T05:41:44.112Z,101290.31
2023-02-24T05:44:15.912Z,101284.75
2023-02-24T05:46:46.753Z,101276.78
2023-02-24T05:49:17.606Z,101280.19
2023-02-24T05:51:54.900Z,101281.91
2023-02-24T05:54:26.096Z,101286.84
2023-02-24T05:56:57.049Z,101281.38
2023-02-24T05:59:25.676Z,101270.59
2023-02-24T06:01:54.343Z,101275.91
2023-02-24T06:04:39.539Z,101280.38
2023-02-24T06:07:13.970Z,101271.44
2023-02-24T06:09:45.214Z,101274.00
2023-02-24T06:12:16.011Z,101266.03
2023-02-24T06:14:45.145Z,101263.19
2023-02-24T06:17:15.255Z,101269.53
2023-02-24T06:19:43.574Z,101257.09
2023-02-24T06:22:14.249Z,101255.28
2023-02-24T06:24:44.658Z,101249.97
2023-02-24T06:27:17.994Z,101255.97
2023-02-24T06:29:50.075Z,101250.66
2023-02-24T06:32:19.133Z,101249.66
2023-02-24T06:34:47.415Z,101240.88
2023-02-24T06:37:16.871Z,101243.28
2023-02-24T06:39:45.193Z,101236.25
2023-02-24T06:42:15.458Z,101243.97
2023-02-24T06:44:43.466Z,101246.47
2023-02-24T06:47:14.356Z,101232.91
2023-02-24T06:49:43.014Z,101236.31
2023-02-24T06:52:18.673Z,101236.88
2023-02-24T06:54:49.815Z,101231.97
2023-02-24T06:57:20.619Z,101231.88
2023-02-24T07:00:11.915Z,101232.34
2023-02-24T07:02:41.286Z,101224.94
2023-02-24T07:05:14.747Z,101216.69
2023-02-24T07:07:46.002Z,101216.53
2023-02-24T07:10:18.056Z,101213.00
2023-02-24T07:12:47.882Z,101206.91
2023-02-24T07:15:17.852Z,101209.78
2023-02-24T07:17:47.685Z,101210.78
2023-02-24T07:20:25.697Z,101206.59
2023-02-24T07:22:53.963Z,101219.06
2023-02-24T07:25:33.418Z,101217.44
2023-02-24T07:28:03.106Z,101221.72
2023-02-24T07:30:33.589Z,101210.22
2023-02-24T07:33:04.046Z,101220.59
2023-02-24T07:35:32.462Z,101221.16
2023-02-24T07:38:04.750Z,101218.22
2023-02-24T07:40:33.705Z,101217.84
2023-02-24T07:43:06.483Z,101214.03
2023-02-24T07:45:36.203Z,101217.38
2023-02-24T07:48:04.700Z,101206.75
2023-02-24T07:50:33.117Z,101212.63
2023-02-24T07:53:05.041Z,101211.38
2023-02-24T07:55:36.678Z,101208.63
2023-02-24T07:58:06.365Z,101207.59
2023-02-24T08:00:50.644Z,101213.03
2023-02-24T08:03:18.896Z,101211.88
2023-02-24T08:05:47.276Z,101215.09
2023-02-24T08:08:21.944Z,101214.59
2023-02-24T08:10:50.103Z,101220.44
2023-02-24T08:13:19.595Z,101215.56
2023-02-24T08:15:56.839Z,101197.47
2023-02-24T08:18:24.862Z,101202.50
2023-02-24T08:20:54.025Z,101198.03
2023-02-24T08:23:23.664Z,101200.41
2023-02-24T08:25:51.884Z,101201.19
2023-02-24T08:28:21.986Z,101201.97
2023-02-24T08:30:51.361Z,101198.22
2023-02-24T08:33:23.504Z,101192.81
2023-02-24T08:36:01.285Z,101197.94
2023-02-24T08:38:40.217Z,101192.53
2023-02-24T08:41:18.256Z,101188.03
2023-02-24T08:43:49.440Z,101193.94
2023-02-24T08:46:25.768Z,101186.25
2023-02-24T08:48:56.826Z,101187.38
2023-02-24T08:51:29.288Z,101181.25
2023-02-24T08:53:59.441Z,101189.28
2023-02-24T08:56:30.356Z,101188.31
2023-02-24T08:59:05.778Z,101186.97
2023-02-24T09:01:36.078Z,101180.25
2023-02-24T09:04:06.621Z,101185.91
2023-02-24T09:06:44.426Z,101190.50
2023-02-24T09:09:20.416Z,101185.38
2023-02-24T09:11:51.021Z,101181.31
2023-02-24T09:14:27.027Z,101178.19
2023-02-24T09:17:11.420Z,101174.50
2023-02-24T09:20:02.289Z,101162.75
2023-02-24T09:22:32.787Z,101168.41
2023-02-24T09:25:24.166Z,101159.97
2023-02-24T09:27:56.268Z,101145.03
2023-02-24T09:30:38.153Z,101147.84
2023-02-24T09:33:18.285Z,101141.63
2023-02-24T09:35:48.207Z,101140.63
2023-02-24T09:38:18.074Z,101138.03
2023-02-24T09:40:50.665Z,101131.97
2023-02-24T09:43:24.188Z,101133.97
2023-02-24T09:46:02.235Z,101133.19
2023-02-24T09:48:44.923Z,101132.41
2023-02-24T09:51:23.175Z,101129.78
2023-02-24T09:53:54.670Z,101124.94
2023-02-24T09:56:32.743Z,101124.47
2023-02-24T09:59:12.837Z,101125.97
2023-02-24T10:02:02.429Z,101125.28
2023-02-24T10:04:54.388Z,101121.91
2023-02-24T10:07:30.485Z,101117.56
2023-02-24T10:10:19.876Z,101116.72
2023-02-24T10:12:52.870Z,101117.72
2023-02-24T10:15:56.878Z,101107.16
2023-02-24T10:18:32.222Z,101105.50
2023-02-24T10:21:15.724Z,101116.47
2023-02-24T10:23:59.690Z,101104.06
2023-02-24T10:26:59.723Z,101094.31
2023-02-24T10:29:43.634Z,101091.75
2023-02-24T10:32:24.764Z,101084.59
2023-02-24T10:34:54.943Z,101088.94
2023-02-24T10:37:29.218Z,101083.97
2023-02-24T10:39:59.829Z,101087.31
2023-02-24T10:42:31.927Z,101073.69
2023-02-24T10:45:17.961Z,101068.19
2023-02-24T10:47:57.223Z,101064.41
2023-02-24T10:50:32.608Z,101064.88
2023-02-24T10:53:26.612Z,101073.53
2023-02-24T10:56:15.198Z,101070.47
2023-02-24T10:58:56.998Z,101067.97
2023-02-24T11:01:40.827Z,101068.34
2023-02-24T11:04:33.685Z,101055.63
2023-02-24T11:07:11.897Z,101052.56
2023-02-24T11:09:54.827Z,101045.63
2023-02-24T11:12:43.026Z,101049.03
2023-02-24T11:15:38.919Z,101054.88
2023-02-24T11:18:10.644Z,101039.34
2023-02-24T11:20:49.727Z,101038.66
2023-02-24T11:23:23.552Z,101033.66
2023-02-24T11:25:54.636Z,101035.66
2023-02-24T11:28:39.880Z,101027.25
2023-02-24T11:31:18.789Z,101028.16
2023-02-24T11:33:57.398Z,101026.63
2023-02-24T11:36:33.519Z,101019.97
2023-02-24T11:39:21.188Z,101017.75
2023-02-24T11:41:55.583Z,101023.66
2023-02-24T11:44:30.989Z,101021.72
2023-02-24T11:47:07.499Z,101016.59
2023-02-24T11:49:42.195Z,101020.88
2023-02-24T11:52:16.123Z,101025.66
2023-02-24T11:54:50.626Z,101010.13
2023-02-24T11:57:26.132Z,101023.19
2023-02-24T12:00:05.296Z,101016.72
2023-02-24T12:02:43.759Z,101010.22
2023-02-24T12:05:15.240Z,101009.81
2023-02-24T12:07:47.234Z,101005.44
2023-02-24T12:10:22.184Z,101007.03
2023-02-24T12:12:55.942Z,101001.34
2023-02-24T12:15:28.367Z,101007.13
2023-02-24T12:18:04.408Z,101008.38
2023-02-24T12:20:40.543Z,100998.06
2023-02-24T12:23:18.132Z,100991.25
2023-02-24T12:26:11.090Z,100994.22
2023-02-24T12:28:58.444Z,100986.59
2023-02-24T12:31:35.173Z,100977.72
2023-02-24T12:34:10.020Z,100971.81
2023-02-24T12:37:00.188Z,100971.00
2023-02-24T12:39:33.713Z,100970.72
2023-02-24T12:42:18.842Z,100973.09
2023-02-24T12:45:00.161Z,100962.16
2023-02-24T12:47:39.745Z,100959.91
2023-02-24T12:50:25.686Z,100958.06
2023-02-24T12:53:07.792Z,100962.16
2023-02-24T12:55:45.427Z,100961.91
2023-02-24T12:58:19.899Z,100954.53
2023-02-24T13:01:03.722Z,100963.16
2023-02-24T13:03:50.577Z,100958.03
2023-02-24T13:06:27.564Z,100947.97
2023-02-24T13:09:02.753Z,100956.00
2023-02-24T13:11:44.835Z,100940.88
2023-02-24T13:14:23.546Z,100938.25
2023-02-24T13:16:51.833Z,100941.94
2023-02-24T13:19:21.829Z,100938.97
2023-02-24T13:22:06.725Z,100934.16
2023-02-24T13:24:36.359Z,100940.94
2023-02-24T13:27:25.730Z,100927.84
2023-02-24T13:29:57.766Z,100929.56
2023-02-24T13:32:33.355Z,100920.66
2023-02-24T13:35:03.055Z,100915.00
2023-02-24T13:37:35.943Z,100913.16
2023-02-24T13:40:23.560Z,100916.72
2023-02-24T13:42:59.873Z,100905.53
2023-02-24T13:45:30.743Z,100906.72
2023-02-24T13:48:30.570Z,100906.47
2023-02-24T13:51:15.040Z,100900.22
2023-02-24T13:53:59.396Z,100898.84
2023-02-24T13:56:38.433Z,100898.28
2023-02-24T13:59:42.616Z,100889.66
2023-02-24T14:02:18.112Z,100877.91
2023-02-24T14:04:48.764Z,100878.75
2023-02-24T14:07:22.713Z,100870.75
2023-02-24T14:09:55.154Z,100867.94
2023-02-24T14:12:27.524Z,100868.59
2023-02-24T14:14:56.818Z,100870.03
2023-02-24T14:17:28.759Z,100859.53
2023-02-24T14:20:08.931Z,100855.44
2023-02-24T14:22:44.697Z,100851.91
2023-02-24T14:25:14.024Z,100860.81
2023-02-24T14:27:46.242Z,100852.91
2023-02-24T14:30:25.660Z,100851.88
2023-02-24T14:32:56.483Z,100854.97
2023-02-24T14:35:33.784Z,100844.50
2023-02-24T14:38:03.545Z,100847.63
2023-02-24T14:40:31.954Z,100847.91
2023-02-24T14:43:00.443Z,100852.03
2023-02-24T14:45:31.008Z,100854.88
2023-02-24T14:48:00.988Z,100847.66
2023-02-24T14:50:34.273Z,100848.94
2023-02-24T14:53:07.014Z,100851.63
2023-02-24T14:55:38.962Z,100846.25
2023-02-24T14:58:15.198Z,100844.25
2023-02-24T15:00:49.365Z,100837.91
2023-02-24T15:03:26.447Z,100838.59
2023-02-24T15:05:58.017Z,100839.44
2023-02-24T15:08:36.078Z,100835.50
2023-02-24T15:11:12.727Z,100832.13
2023-02-24T15:13:43.964Z,100828.28
2023-02-24T15:16:16.061Z,100825.75
2023-02-24T15:18:45.886Z,100832.13
2023-02-24T15:21:23.092Z,100827.19
2023-02-24T15:24:00.892Z,100822.94
2023-02-24T15:26:32.673Z,100824.94
2023-02-24T15:29:14.159Z,100821.53
2023-02-24T15:31:48.583Z,100824.94
2023-02-24T15:34:21.530Z,100830.31
2023-02-24T15:36:52.099Z,100814.59
2023-02-24T15:39:24.179Z,100818.56
2023-02-24T15:41:53.907Z,100821.53
2023-02-24T15:44:26.401Z,100815.22
2023-02-24T15:46:55.090Z,100814.91
2023-02-24T15:49:24.906Z,100824.53
2023-02-24T15:51:55.288Z,100818.31
2023-02-24T15:54:30.429Z,100816.31
2023-02-24T15:57:00.587Z,100819.13
2023-02-24T15:59:32.184Z,100819.41
2023-02-24T16:02:00.440Z,100806.81
2023-02-24T16:04:29.948Z,100805.81
2023-02-24T16:06:59.127Z,100803.03
2023-02-24T16:09:33.650Z,100795.09
2023-02-24T16:12:03.846Z,100799.19
2023-02-24T16:14:32.541Z,100807.22
2023-02-24T16:17:03.799Z,100792.66
2023-02-24T16:19:33.211Z,100798.88
2023-02-24T16:22:01.320Z,100804.13
2023-02-24T16:24:29.407Z,100802.19
2023-02-24T16:26:57.538Z,100801.47
2023-02-24T16:29:25.597Z,100802.44
2023-02-24T16:31:53.928Z,100793.13
2023-02-24T16:34:22.232Z,100811.50
2023-02-24T16:36:51.986Z,100801.19
2023-02-24T16:39:20.050Z,100808.09
2023-02-24T16:41:48.636Z,100813.19
2023-02-24T16:44:16.777Z,100815.72
2023-02-24T16:46:46.305Z,100813.19
2023-02-24T16:49:20.017Z,100815.88
2023-02-24T16:51:48.296Z,100815.19
2023-02-24T16:54:19.314Z,100808.25
2023-02-24T16:56:48.331Z,100811.63
2023-02-24T16:59:16.578Z,100808.41
2023-02-24T17:01:44.816Z,100809.41
2023-02-24T17:04:14.321Z,100813.78
2023-02-24T17:06:42.777Z,100808.94
2023-02-24T17:09:15.765Z,100818.16
2023-02-24T17:11:45.999Z,100807.81
2023-02-24T17:14:17.690Z,100824.34
2023-02-24T17:16:46.118Z,100821.25
2023-02-24T17:19:14.435Z,100818.81
2023-02-24T17:21:45.125Z,100821.06
2023-02-24T17:24:17.280Z,100822.63
2023-02-24T17:26:47.157Z,100827.56
2023-02-24T17:29:15.942Z,100812.28
2023-02-24T17:31:44.227Z,100817.78
2023-02-24T17:34:12.427Z,100819.28
2023-02-24T17:36:40.545Z,100814.47
2023-02-24T17:39:10.806Z,100820.41
2023-02-24T17:41:38.839Z,100832.34
2023-02-24T17:44:08.557Z,100834.69
2023-02-24T17:46:37.345Z,100829.19
2023-02-24T17:49:05.818Z,100827.88
2023-02-24T17:51:35.713Z,100833.91
2023-02-24T17:54:03.819Z,100830.91
2023-02-24T17:56:32.411Z,100832.16
2023-02-24T17:59:01.193Z,100833.53
2023-02-24T18:01:30.667Z,100844.38
2023-02-24T18:03:58.885Z,100837.84
2023-02-24T18:06:27.501Z,100843.19
2023-02-24T18:08:55.722Z,100844.91
2023-02-24T18:11:23.819Z,100856.84
2023-02-24T18:13:52.777Z,100848.81
2023-02-24T18:16:21.765Z,100849.81
2023-02-24T18:18:52.113Z,100856.38
2023-02-24T18:21:20.581Z,100853.72
2023-02-24T18:23:49.765Z,100864.56
2023-02-24T18:26:18.265Z,100867.38
2023-02-24T18:28:46.548Z,100862.28
2023-02-24T18:31:17.161Z,100867.88
2023-02-24T18:33:54.571Z,100871.69
2023-02-24T18:39:26.268Z,100875.34
2023-02-24T18:41:56.558Z,100871.81
2023-02-24T18:44:26.554Z,100882.78
2023-02-24T18:46:58.149Z,100874.75
2023-02-24T18:49:26.839Z,100883.88
2023-02-24T18:51:57.150Z,100879.78
2023-02-24T18:54:26.906Z,100881.84
2023-02-24T18:56:55.036Z,100886.22
2023-02-24T18:59:23.261Z,100883.94
2023-02-24T19:01:57.252Z,100884.06
2023-02-24T19:07:32.117Z,100891.13
2023-02-24T19:10:00.901Z,100903.97
2023-02-24T19:12:45.533Z,100890.88
2023-02-24T19:15:17.838Z,100899.94
2023-02-24T19:17:46.434Z,100891.81
2023-02-24T19:20:33.720Z,100890.94
2023-02-24T19:23:23.021Z,100891.53
2023-02-24T19:25:51.217Z,100897.63
2023-02-24T19:28:20.327Z,100902.00
2023-02-24T19:30:49.209Z,100898.31
2023-02-24T19:33:17.540Z,100898.09
2023-02-24T19:35:45.618Z,100895.41
2023-02-24T19:38:16.305Z,100898.09
2023-02-24T19:40:46.245Z,100903.16
2023-02-24T19:43:15.540Z,100913.03
2023-02-24T19:45:44.571Z,100912.31
2023-02-24T19:48:13.247Z,100907.94
2023-02-24T19:50:42.867Z,100907.34
2023-02-24T19:53:17.250Z,100921.72
2023-02-24T19:55:54.926Z,100919.16
2023-02-24T19:58:26.173Z,100921.72
2023-02-24T20:01:08.632Z,100932.28
2023-02-24T20:21:49.912Z,100954.84
2023-02-24T20:27:30.271Z,100961.56
2023-02-24T20:29:59.926Z,100962.56
2023-02-24T20:32:30.967Z,100963.41
2023-02-24T20:35:00.443Z,100962.41
2023-02-24T20:38:16.280Z,100957.34
2023-02-24T20:44:34.014Z,100960.63
2023-02-24T20:47:06.239Z,100963.81
2023-02-24T20:49:40.917Z,100965.16
2023-02-24T20:52:10.398Z,100967.72
2023-02-24T20:54:38.605Z,100975.13
2023-02-24T20:57:09.211Z,100978.16
2023-02-24T20:59:45.514Z,100985.56
2023-02-24T21:02:22.239Z,100989.72
2023-02-24T21:04:51.133Z,100993.59
2023-02-24T21:07:20.273Z,100987.91
2023-02-24T21:09:48.541Z,101008.69
2023-02-24T21:12:17.252Z,100999.31
2023-02-24T21:14:46.394Z,100998.94
2023-02-24T21:17:15.248Z,101016.94
2023-02-24T21:19:45.425Z,101013.75
2023-02-24T21:22:14.362Z,101023.00
2023-02-24T21:24:43.080Z,101018.34
2023-02-24T21:27:14.893Z,101029.38
2023-02-24T21:29:43.619Z,101028.03
2023-02-24T21:32:14.681Z,101036.53
2023-02-24T21:37:34.878Z,101040.13
2023-02-24T21:40:11.647Z,101038.66
2023-02-24T21:42:44.751Z,101044.25
2023-02-24T21:45:16.552Z,101043.88
2023-02-24T21:47:47.402Z,101051.34
2023-02-24T21:50:19.108Z,101057.78
2023-02-24T21:52:48.790Z,101058.25
2023-02-24T21:55:20.007Z,101073.50
2023-02-24T21:57:49.489Z,101071.94
2023-02-24T22:00:24.556Z,101070.44
2023-02-24T22:02:58.110Z,101074.09
2023-02-24T22:05:28.581Z,101083.03
2023-02-24T22:07:58.963Z,101080.28
2023-02-24T22:10:27.326Z,101077.50
2023-02-24T22:12:57.653Z,101077.59
2023-02-24T22:15:26.652Z,101088.63
2023-02-24T22:17:55.756Z,101093.31
2023-02-24T22:20:23.931Z,101086.72
2023-02-24T22:22:53.723Z,101092.47
2023-02-24T22:25:23.661Z,101091.00
2023-02-24T22:27:53.560Z,101099.44
2023-02-24T22:30:33.561Z,101100.63
2023-02-24T22:33:05.428Z,101103.72
2023-02-24T22:35:39.483Z,101105.66
2023-02-24T22:38:10.347Z,101107.69
2023-02-24T22:40:40.469Z,101106.00
2023-02-24T22:43:09.104Z,101107.03
2023-02-24T22:45:37.619Z,101109.72
2023-02-24T22:48:05.952Z,101108.97
2023-02-24T22:50:35.538Z,101125.00
2023-02-24T22:53:04.021Z,101114.31
2023-02-24T22:55:44.645Z,101127.66
2023-02-24T22:58:13.647Z,101134.81
2023-02-24T23:00:46.944Z,101128.38
2023-02-24T23:03:20.011Z,101132.78
2023-02-24T23:05:55.978Z,101130.97
2023-02-24T23:08:24.936Z,101133.53
2023-02-24T23:11:06.154Z,101139.06
2023-02-24T23:13:36.765Z,101140.78
2023-02-24T23:16:06.311Z,101146.34
2023-02-24T23:18:38.844Z,101149.97
2023-02-24T23:21:14.807Z,101149.13
2023-02-24T23:23:44.833Z,101157.13
2023-02-24T23:26:18.536Z,101153.59
2023-02-24T23:28:47.274Z,101158.81
2023-02-24T23:31:22.250Z,101157.31
2023-02-24T23:33:51.577Z,101162.66
2023-02-24T23:36:22.267Z,101165.44
2023-02-24T23:38:51.121Z,101170.78
2023-02-24T23:41:21.089Z,101171.72
2023-02-24T23:43:49.793Z,101171.09
2023-02-24T23:46:18.681Z,101177.47
2023-02-24T23:49:04.920Z,101174.28
2023-02-24T23:51:47.168Z,101184.09
2023-02-24T23:54:16.759Z,101189.75
2023-02-24T23:56:47.825Z,101189.22
2023-02-24T23:59:16.611Z,101183.22
